Latest Weather Observations for Tibooburra Airport

IDN60801

Issued at 5:05 pm EDT Wednesday 22 October 2014 (issued every 30 minutes, with the page automatically refreshed every 10 minutes)

About weather observations | Map of weather stations | Latest weather observations for NSW | Other Formats
Station Details ID: 046126 Name: TIBOOBURRA AIRPORT Lat: -29.44 Lon: 142.06 Height: 176.4 m
Data from the previous 72 hours. | See also: Recent months for locations in New South Wales
Date/Time
EDT
Temp
°C
App
Temp
°C
Dew
Point
Rel
Hum
%
Delta-T
°C
Wind Press
QNH
hPa
Press
MSL
hPa
Rain
since 9 am
mm
Dir
 
Spd
km/h
Gust
km/h
Spd
kts
Gust
kts
22/05:00pm 30.0 26.3 7.8 25 12.2 SSW 17 20 9 11 1017.9 1017.2 0.2
22/04:51pm 30.0 24.3 8.4 26 12.0 S 28 35 15 19 1017.6 1016.9 0.2
22/04:30pm 31.8 22.8 4.6 18 14.3 SE 41 54 22 29 1017.0 1016.3 0.0
22/04:00pm 31.7 24.0 5.3 19 14.0 SE 35 57 19 31 1016.1 1015.5 0.0
22/03:56pm 32.5 25.7 5.1 18 14.6 SSE 30 52 16 28 1016.1 1015.5 0.0
22/03:55pm 33.2 26.6 4.0 16 15.3 SSE 28 43 15 23 1016.1 1015.5 0.0
22/03:30pm 36.3 31.1 -0.2 10 18.3 WSW 17 20 9 11 1015.8 1015.2 0.0
22/03:00pm 37.1 31.4 0.4 10 18.6 W 20 33 11 18 1016.1 1015.5 0.0
22/02:30pm 37.6 30.8 0.8 10 18.8 WNW 26 32 14 17 1016.4 1015.7 0.0
22/02:00pm 37.1 31.9 0.4 10 18.6 W 17 24 9 13 1017.1 1016.4 0.0
22/01:30pm 36.8 30.9 1.5 11 18.2 W 22 28 12 15 1017.8 1017.1 0.0
22/01:00pm 36.4 30.8 1.2 11 18.0 WNW 20 32 11 17 1018.2 1017.5 0.0
22/12:30pm 36.2 30.8 2.3 12 17.6 WNW 20 32 11 17 1018.6 1017.9 0.0
22/12:00pm 35.5 30.0 1.8 12 17.3 NW 20 30 11 16 1018.9 1018.3 0.0
22/11:30am 34.5 28.7 2.1 13 16.6 NNW 22 30 12 16 1019.4 1018.8 0.0
22/11:00am 32.9 27.4 1.9 14 15.7 N 20 30 11 16 1019.6 1019.0 0.0
22/10:30am 33.0 27.1 2.0 14 15.7 N 22 33 12 18 1019.7 1019.1 0.0
22/10:00am 30.8 25.3 2.1 16 14.4 N 20 26 11 14 1019.6 1019.0 0.0
22/09:30am 27.9 23.0 2.2 19 12.7 N 17 20 9 11 1019.4 1018.8 0.0
22/09:00am 25.4 20.2 2.2 22 11.2 N 19 24 10 13 1019.1 1018.5 0.0
22/08:30am 24.1 18.8 1.7 23 10.7 N 19 22 10 12 1018.7 1018.1 0.0
22/08:00am 25.2 19.8 1.3 21 11.4 N 19 20 10 11 1018.5 1017.8 0.0
22/07:30am 24.7 19.4 1.6 22 11.0 N 19 20 10 11 1018.1 1017.4 0.0
22/07:00am 24.1 19.2 1.7 23 10.6 N 17 20 9 11 1017.8 1017.1 0.0
22/06:30am 24.6 19.2 1.5 22 11.0 N 19 20 10 11 1017.7 1017.0 0.0
22/06:00am 24.1 19.5 1.7 23 10.6 N 15 17 8 9 1017.4 1016.7 0.0
22/05:30am 24.2 19.6 1.8 23 10.7 N 15 17 8 9 1017.3 1016.6 0.0
22/05:00am 24.0 20.6 1.6 23 10.6 NE 9 13 5 7 1017.3 1016.6 0.0
22/04:30am 22.6 19.0 0.4 23 10.2 SSE 9 11 5 6 1017.3 1016.6 0.0
22/04:00am 25.6 21.7 1.0 20 11.7 NE 11 13 6 7 1017.1 1016.4 0.0
22/03:30am 26.2 21.6 1.5 20 11.9 NNE 15 17 8 9 1017.3 1016.6 0.0
22/03:00am 26.1 21.9 1.4 20 11.8 N 13 17 7 9 1017.5 1016.8 0.0
22/02:30am 26.5 23.0 1.0 19 12.2 ENE 9 11 5 6 1017.8 1017.1 0.0
22/02:00am 26.5 22.6 1.0 19 12.2 NNE 11 15 6 8 1018.3 1017.6 0.0
22/01:30am 28.2 23.6 1.7 18 13.0 N 15 17 8 9 1018.3 1017.6 0.0
22/01:00am 28.4 24.1 1.0 17 13.2 N 13 15 7 8 1018.6 1017.9 0.0
22/12:30am 28.4 24.1 1.0 17 13.3 N 13 15 7 8 1018.9 1018.3 0.0
22/12:00am 28.7 24.4 1.3 17 13.3 N 13 15 7 8 1019.1 1018.5 0.0
 
Date/Time
EDT
Temp
°C
App
Temp
°C
Dew
Point
Rel
Hum
%
Delta-T
°C
Wind Press
QNH
hPa
Press
MSL
hPa
Rain
since 9 am
mm
Dir
 
Spd
km/h
Gust
km/h
Spd
kts
Gust
kts
21/11:30pm 28.7 24.1 1.3 17 13.4 N 15 17 8 9 1019.2 1018.6 0.0
21/11:00pm 28.9 24.5 0.6 16 13.6 NNE 13 13 7 7 1019.3 1018.7 0.0
21/10:30pm 29.5 25.2 1.1 16 13.9 NNE 13 15 7 8 1019.3 1018.7 0.0
21/10:00pm 30.0 25.3 0.6 15 14.3 NNE 15 17 8 9 1019.2 1018.6 0.0
21/09:30pm 30.4 25.9 -0.1 14 14.7 NNE 13 15 7 8 1019.0 1018.4 0.0
21/09:00pm 31.2 26.3 -0.5 13 15.2 NE 15 17 8 9 1018.8 1018.2 0.0
21/08:30pm 31.3 26.8 -0.4 13 15.3 NE 13 15 7 8 1018.6 1017.9 0.0
21/08:00pm 32.7 28.6 -0.4 12 16.1 NE 11 15 6 8 1018.4 1017.7 0.0
21/07:30pm 34.2 30.3 -1.7 10 17.3 NE 9 13 5 7 1018.1 1017.4 0.0
21/07:00pm 35.3 30.7 -0.9 10 17.8 ENE 13 20 7 11 1017.8 1017.1 0.0
21/06:30pm 36.3 30.5 -0.2 10 18.3 ENE 20 32 11 17 1017.6 1016.9 0.0
21/06:00pm 36.8 30.8 -1.2 9 18.7 NE 20 26 11 14 1017.5 1016.8 0.0
21/05:30pm 36.3 33.0 -0.2 10 18.3 N 7 15 4 8 1017.6 1016.9 0.0
21/05:00pm 37.4 33.2 -0.8 9 19.0 NW 11 19 6 10 1017.5 1016.8 0.0
21/04:30pm 36.9 33.1 -1.1 9 18.8 ESE 9 19 5 10 1017.7 1017.0 0.0
21/04:00pm 37.6 31.9 -0.6 9 19.1 NNE 19 33 10 18 1017.9 1017.2 0.0
21/03:30pm 37.4 34.4 0.7 10 18.7 ENE 6 19 3 10 1018.2 1017.5 0.0
21/03:00pm 37.1 31.9 0.4 10 18.6 ENE 17 26 9 14 1018.6 1017.9 0.0
21/02:30pm 36.1 32.0 -0.3 10 18.2 NE 11 17 6 9 1019.3 1018.7 0.0
21/02:00pm 36.7 32.6 0.1 10 18.4 E 11 26 6 14 1019.5 1018.9 0.0
21/01:30pm 36.3 30.7 1.2 11 17.9 N 20 28 11 15 1020.1 1019.5 0.0
21/01:00pm 35.9 30.4 0.9 11 17.7 NE 19 39 10 21 1020.6 1020.0 0.0
21/12:30pm 35.3 31.1 1.6 12 17.2 N 13 17 7 9 1020.9 1020.3 0.0
21/12:00pm 35.2 29.8 2.6 13 16.9 N 20 32 11 17 1021.1 1020.5 0.0
21/11:30am 35.2 29.6 3.7 14 16.7 N 22 35 12 19 1021.5 1020.9 0.0
21/11:00am 34.6 29.0 3.2 14 16.4 N 22 32 12 17 1021.6 1021.0 0.0
21/10:30am 33.7 28.1 3.5 15 15.8 N 22 30 12 16 1021.7 1021.1 0.0
21/10:00am 32.2 27.5 3.2 16 14.9 NNE 17 24 9 13 1021.7 1021.1 0.0
21/09:30am 30.3 25.5 2.5 17 14.0 NNE 17 24 9 13 1021.6 1021.0 0.0
21/09:00am 28.5 23.7 2.7 19 12.8 NNE 17 20 9 11 1021.4 1020.8 0.0
21/08:30am 26.3 22.1 1.6 20 11.9 NE 13 15 7 8 1021.2 1020.6 0.0
21/08:00am 24.4 20.5 1.3 22 10.9 NE 11 13 6 7 1020.9 1020.3 0.0
21/07:30am 23.0 19.0 0.8 23 10.3 ENE 11 15 6 8 1020.5 1019.9 0.0
21/07:00am 22.3 18.3 0.8 24 9.9 NE 11 13 6 7 1020.1 1019.5 0.0
21/06:30am 22.4 18.8 0.3 23 10.1 ENE 9 11 5 6 1019.8 1019.2 0.0
21/06:00am 22.8 19.2 0.6 23 10.2 E 9 13 5 7 1019.5 1018.9 0.0
21/05:30am 21.8 18.5 0.4 24 9.8 E 7 9 4 5 1019.3 1018.7 0.0
21/05:00am 22.5 19.4 0.4 23 10.1 E 6 9 3 5 1019.1 1018.5 0.0
21/04:30am 22.9 19.2 0.1 22 10.4 E 9 9 5 5 1019.1 1018.5 0.0
21/04:00am 23.2 19.6 0.3 22 10.5 ESE 9 11 5 6 1019.2 1018.6 0.0
21/03:30am 23.0 19.4 0.8 23 10.3 ESE 9 11 5 6 1019.4 1018.8 0.0
21/03:00am 23.4 19.8 0.5 22 10.6 ESE 9 9 5 5 1019.5 1018.9 0.0
21/02:30am 23.5 20.5 0.6 22 10.6 ESE 6 7 3 4 1019.7 1019.1 0.0
21/02:00am 24.4 21.2 0.7 21 11.1 ESE 7 9 4 5 1019.8 1019.2 0.0
21/01:30am 25.6 21.7 1.0 20 11.7 ESE 11 11 6 6 1020.0 1019.4 0.0
21/01:00am 26.2 24.3 0.8 19 12.0 CALM 0 0 0 0 1020.1 1019.5 0.0
21/12:30am 26.7 24.8 0.4 18 12.5 CALM 0 0 0 0 1020.3 1019.7 0.0
21/12:00am 27.7 24.1 0.5 17 13.0 E 9 11 5 6 1020.4 1019.8 0.0
 
Date/Time
EDT
Temp
°C
App
Temp
°C
Dew
Point
Rel
Hum
%
Delta-T
°C
Wind Press
QNH
hPa
Press
MSL
hPa
Rain
since 9 am
mm
Dir
 
Spd
km/h
Gust
km/h
Spd
kts
Gust
kts
20/11:30pm 28.1 24.5 0.8 17 13.1 E 9 13 5 7 1020.5 1019.9 0.0
20/11:00pm 28.2 24.6 0.9 17 13.1 E 9 11 5 6 1020.6 1020.0 0.0
20/10:30pm 27.9 24.3 0.6 17 13.1 E 9 11 5 6 1020.5 1019.9 0.0
20/10:00pm 27.4 23.4 0.2 17 12.9 ENE 11 13 6 7 1020.4 1019.8 0.0
20/09:30pm 28.3 23.5 0.1 16 13.4 ENE 15 17 8 9 1020.2 1019.6 0.0
20/09:00pm 29.0 24.5 -0.2 15 13.9 E 13 15 7 8 1019.9 1019.3 0.0
20/08:30pm 30.1 26.0 -0.3 14 14.6 E 11 13 6 7 1019.5 1018.9 0.0
20/08:00pm 31.6 27.1 -0.1 13 15.4 E 13 15 7 8 1019.2 1018.6 0.0
20/07:30pm 33.5 29.3 -1.0 11 16.7 E 11 15 6 8 1018.8 1018.2 0.0
20/07:00pm 34.5 30.2 -1.5 10 17.4 SE 11 17 6 9 1018.5 1017.8 0.0
20/06:30pm 35.4 29.9 -2.3 9 18.1 ESE 17 26 9 14 1018.5 1017.8 0.0
20/06:00pm 35.8 30.3 -2.0 9 18.3 ESE 17 24 9 13 1018.4 1017.7 0.0
20/05:30pm 35.9 32.3 -1.9 9 18.4 NE 7 15 4 8 1018.5 1017.8 0.0
20/05:00pm 35.9 30.8 -1.9 9 18.3 E 15 26 8 14 1018.5 1017.8 0.0
20/04:30pm 36.2 31.1 -1.7 9 18.5 NE 15 20 8 11 1018.7 1018.1 0.0
20/04:00pm 36.3 31.6 -1.6 9 18.5 ESE 13 22 7 12 1019.0 1018.4 0.0
20/03:30pm 36.4 31.7 -1.5 9 18.6 E 13 26 7 14 1019.3 1018.7 0.0
20/03:00pm 36.3 32.4 -1.6 9 18.5 S 9 20 5 11 1019.7 1019.1 0.0
20/02:30pm 35.7 30.6 -2.0 9 18.2 ESE 15 22 8 12 1020.4 1019.8 0.0
20/02:00pm 35.0 31.7 -1.1 10 17.6 SE 6 15 3 8 1020.9 1020.3 0.0
20/01:30pm 35.1 31.3 -1.1 10 17.7 W 9 15 5 8 1021.2 1020.6 0.0
20/01:00pm 35.2 31.7 -1.0 10 17.7 W 7 15 4 8 1021.6 1021.0 0.0
20/12:30pm 34.1 30.2 -1.8 10 17.2 ENE 9 19 5 10 1022.0 1021.4 0.0
20/12:00pm 34.3 30.5 -0.4 11 17.0 NW 9 20 5 11 1022.3 1021.6 0.0
20/11:30am 33.2 28.7 0.0 12 16.3 N 13 20 7 11 1022.7 1022.0 0.0
20/11:00am 32.9 27.7 -0.2 12 16.1 N 17 22 9 12 1023.0 1022.3 0.0
20/10:30am 31.3 26.0 -0.4 13 15.3 N 17 20 9 11 1023.1 1022.4 0.0
20/10:00am 29.0 24.0 -1.2 14 14.1 N 15 20 8 11 1023.0 1022.3 0.0
20/09:30am 27.4 23.1 -1.5 15 13.3 N 11 15 6 8 1022.9 1022.2 0.0
20/09:00am 25.5 20.9 -1.3 17 12.1 NNE 13 17 7 9 1022.4 1021.7 0.0
20/08:30am 23.8 20.9 -1.2 19 11.2 NE 4 9 2 5 1022.0 1021.4 0.0
20/08:00am 20.4 18.2 -1.4 23 9.4 CALM 0 0 0 0 1021.9 1021.3 0.0
20/07:30am 20.3 18.0 -2.1 22 9.6 CALM 0 0 0 0 1021.8 1021.2 0.0
20/07:00am 20.3 16.9 -2.1 22 9.6 ESE 6 7 3 4 1021.3 1020.7 0.0
20/06:30am 20.9 17.5 -2.2 21 9.9 E 6 7 3 4 1021.1 1020.5 0.0
20/06:00am 20.4 17.7 -2.6 21 9.7 SW 2 6 1 3 1020.9 1020.3 0.0
20/05:30am 19.4 15.9 -2.8 22 9.3 SSW 6 6 3 3 1020.3 1019.7 0.0
20/05:00am 20.4 16.7 -3.3 20 9.9 SE 7 9 4 5 1020.0 1019.4 0.0
20/04:30am 19.6 15.8 -3.9 20 9.6 SW 7 9 4 5 1020.0 1019.4 0.0
20/04:00am 20.4 16.8 -3.3 20 9.9 SW 6 7 3 4 1020.0 1019.4 0.0
20/03:30am 20.8 17.2 -3.6 19 10.2 S 6 6 3 3 1020.3 1019.7 0.0
20/03:00am 21.3 17.5 -4.0 18 10.5 SSE 7 9 4 5 1020.5 1019.9 0.0
20/02:30am 20.9 16.7 -4.3 18 10.4 SW 9 9 5 5 1020.6 1020.0 0.0
20/02:00am 21.6 19.0 -4.5 17 10.8 CALM 0 2 0 1 1020.8 1020.2 0.0
20/01:30am 22.9 19.2 -4.2 16 11.4 SSE 6 7 3 4 1020.8 1020.2 0.0
20/01:00am 22.8 18.5 -5.2 15 11.5 SE 9 9 5 5 1021.0 1020.4 0.0
20/12:30am 23.8 19.5 -5.3 14 12.1 ESE 9 9 5 5 1021.1 1020.5 0.0
20/12:00am 24.1 19.8 -5.0 14 12.2 E 9 11 5 6 1021.2 1020.6 0.0
 
Date/Time
EDT
Temp
°C
App
Temp
°C
Dew
Point
Rel
Hum
%
Delta-T
°C
Wind Press
QNH
hPa
Press
MSL
hPa
Rain
since 9 am
mm
Dir
 
Spd
km/h
Gust
km/h
Spd
kts
Gust
kts
19/11:30pm 23.7 19.0 -5.3 14 12.0 ESE 11 13 6 7 1021.2 1020.6 0.0
19/11:00pm 25.3 20.5 -6.1 12 13.0 E 11 13 6 7 1021.3 1020.7 0.0
19/10:30pm 25.5 21.1 -6.0 12 13.1 E 9 11 5 6 1021.4 1020.8 0.0
19/10:00pm 25.7 20.9 -5.8 12 13.2 E 11 13 6 7 1021.2 1020.6 0.0
19/09:30pm 26.4 21.6 -6.4 11 13.7 E 11 13 6 7 1020.9 1020.3 0.0
19/09:00pm 26.8 22.8 -6.1 11 13.8 E 7 9 4 5 1020.9 1020.3 0.0
19/08:30pm 27.7 22.8 -6.6 10 14.4 ENE 11 13 6 7 1020.6 1020.0 0.0
19/08:00pm 29.0 23.7 -7.0 9 15.2 E 13 15 7 8 1020.2 1019.6 0.0
19/07:30pm 31.3 26.4 -6.8 8 16.5 E 11 13 6 7 1019.8 1019.2 0.0
19/07:00pm 33.1 28.6 -7.3 7 17.5 E 9 11 5 6 1019.5 1018.9 0.0
19/06:30pm 33.5 30.3 -7.0 7 17.8 NNW 2 7 1 4 1019.3 1018.7 0.0
19/06:00pm 33.6 29.1 -6.9 7 17.8 NE 9 17 5 9 1019.0 1018.4 0.0
19/05:30pm 34.2 30.3 -6.5 7 18.1 ENE 6 17 3 9 1018.8 1018.2 0.0

Other Formats:

Comma delimited format used in spreadsheet applications
http://www.bom.gov.au/fwo/IDN60801/IDN60801.95485.axf

JavaScript Object Notation format (JSON) in row-major order
http://www.bom.gov.au/fwo/IDN60801/IDN60801.95485.json